createdAt,value
2022-08-03T00:00:53.881Z,18.10
2022-08-03T00:06:15.749Z,18.10
2022-08-03T00:11:37.611Z,18.10
2022-08-03T00:16:59.508Z,18.00
2022-08-03T00:22:21.351Z,17.90
2022-08-03T00:27:46.205Z,17.80
2022-08-03T00:33:10.255Z,17.70
2022-08-03T00:38:32.550Z,17.70
2022-08-03T00:43:54.380Z,17.60
2022-08-03T00:49:16.270Z,17.60
2022-08-03T00:54:38.314Z,17.50
2022-08-03T01:00:00.286Z,17.50
2022-08-03T01:05:22.157Z,17.40
2022-08-03T01:10:43.990Z,17.40
2022-08-03T01:16:05.829Z,17.40
2022-08-03T01:21:27.702Z,17.30
2022-08-03T01:26:49.574Z,17.30
2022-08-03T01:33:02.614Z,17.30
2022-08-03T01:37:53.565Z,17.30
2022-08-03T01:43:15.583Z,17.20
2022-08-03T01:48:57.422Z,17.20
2022-08-03T01:54:19.309Z,17.10
2022-08-03T01:59:41.151Z,17.00
2022-08-03T02:05:03.013Z,17.00
2022-08-03T02:10:34.465Z,17.00
2022-08-03T02:15:56.954Z,17.00
2022-08-03T02:21:55.793Z,16.90
2022-08-03T02:27:00.614Z,16.90
2022-08-03T02:32:22.465Z,16.90
2022-08-03T02:37:45.130Z,16.80
2022-08-03T02:43:11.723Z,16.80
2022-08-03T02:48:33.562Z,16.70
2022-08-03T02:53:55.389Z,16.70
2022-08-03T02:59:17.512Z,16.70
2022-08-03T03:04:41.837Z,16.70
2022-08-03T03:10:21.187Z,16.80
2022-08-03T03:15:43.022Z,16.70
2022-08-03T03:21:04.852Z,16.70
2022-08-03T03:26:26.697Z,16.70
2022-08-03T03:31:48.544Z,16.70
2022-08-03T03:37:10.371Z,16.70
2022-08-03T03:42:32.247Z,16.70
2022-08-03T03:47:54.084Z,16.70
2022-08-03T03:53:15.947Z,16.70
2022-08-03T03:58:38.120Z,16.80
2022-08-03T04:03:59.968Z,16.70
2022-08-03T04:09:21.819Z,16.80
2022-08-03T04:14:43.644Z,16.70
2022-08-03T04:20:05.524Z,16.80
2022-08-03T04:25:27.375Z,16.80
2022-08-03T04:30:49.207Z,16.80
2022-08-03T04:36:11.029Z,16.80
2022-08-03T04:41:32.861Z,16.80
2022-08-03T04:47:14.707Z,16.90
2022-08-03T04:52:36.544Z,16.90
2022-08-03T04:57:58.693Z,16.90
2022-08-03T05:03:25.003Z,17.00
2022-08-03T05:08:48.726Z,17.00
2022-08-03T05:14:10.746Z,17.30
2022-08-03T05:19:32.591Z,18.40
2022-08-03T05:24:54.445Z,19.10
2022-08-03T05:30:29.867Z,19.10
2022-08-03T05:36:03.609Z,19.40
2022-08-03T05:41:36.491Z,20.50
2022-08-03T05:46:59.385Z,21.40
2022-08-03T05:52:21.402Z,22.20
2022-08-03T05:57:43.462Z,22.10
2022-08-03T06:03:06.930Z,22.70
2022-08-03T06:08:28.768Z,23.50
2022-08-03T06:13:50.592Z,24.10
2022-08-03T06:19:12.419Z,24.80
2022-08-03T06:24:34.259Z,25.80
2022-08-03T06:29:56.370Z,26.50
2022-08-03T06:35:18.308Z,27.20
2022-08-03T06:40:40.141Z,27.70
2022-08-03T06:46:01.980Z,27.40
2022-08-03T06:52:04.414Z,27.30
2022-08-03T06:57:05.631Z,28.00
2022-08-03T07:02:28.390Z,28.70
2022-08-03T07:07:50.492Z,29.30
2022-08-03T07:13:12.352Z,30.00
2022-08-03T07:18:34.228Z,30.20
2022-08-03T07:23:56.059Z,30.70
2022-08-03T07:29:17.906Z,30.70
2022-08-03T07:34:39.767Z,31.10
2022-08-03T07:40:01.610Z,31.20
2022-08-03T07:45:23.467Z,31.50
2022-08-03T07:50:45.379Z,31.80
2022-08-03T07:56:11.256Z,32.30
2022-08-03T08:01:33.431Z,32.50
2022-08-03T08:06:55.282Z,32.60
2022-08-03T08:12:17.383Z,32.80
2022-08-03T08:17:39.561Z,32.70
2022-08-03T08:23:01.969Z,32.90
2022-08-03T08:28:31.262Z,33.20
2022-08-03T08:34:03.995Z,33.30
2022-08-03T08:39:26.506Z,33.00
2022-08-03T08:44:48.343Z,33.00
2022-08-03T08:50:27.097Z,33.20
2022-08-03T08:55:59.059Z,33.30
2022-08-03T09:01:22.428Z,33.40
2022-08-03T09:06:53.877Z,33.70
2022-08-03T09:12:42.559Z,33.70
2022-08-03T09:18:04.750Z,33.70
2022-08-03T09:24:00.556Z,33.70
2022-08-03T09:29:13.745Z,33.70
2022-08-03T09:34:36.131Z,33.80
2022-08-03T09:39:58.031Z,33.80
2022-08-03T09:45:19.860Z,33.90
2022-08-03T09:50:41.706Z,34.20
2022-08-03T09:56:35.734Z,34.10
2022-08-03T10:01:58.853Z,34.40
2022-08-03T10:07:20.673Z,34.50
2022-08-03T10:12:42.511Z,34.40
2022-08-03T10:18:04.364Z,34.20
2022-08-03T10:23:26.240Z,34.00
2022-08-03T10:28:48.127Z,34.30
2022-08-03T10:34:09.950Z,34.60
2022-08-03T10:39:31.794Z,34.50
2022-08-03T10:44:53.623Z,34.40
2022-08-03T10:50:15.509Z,34.20
2022-08-03T10:55:37.908Z,34.20
2022-08-03T11:01:01.088Z,34.30
2022-08-03T11:06:23.020Z,34.70
2022-08-03T11:11:44.852Z,34.80
2022-08-03T11:17:06.696Z,35.40
2022-08-03T11:22:28.747Z,35.00
2022-08-03T11:27:50.595Z,34.70
2022-08-03T11:33:12.467Z,34.20
2022-08-03T11:38:34.354Z,34.40
2022-08-03T11:43:56.234Z,34.30
2022-08-03T11:49:18.114Z,34.50
2022-08-03T11:54:39.982Z,34.40
2022-08-03T12:00:01.818Z,34.20
2022-08-03T12:05:23.644Z,34.00
2022-08-03T12:10:47.984Z,33.90
2022-08-03T12:16:09.835Z,33.60
2022-08-03T12:21:31.683Z,33.50
2022-08-03T12:26:58.752Z,33.50
2022-08-03T12:32:21.493Z,33.70
2022-08-03T12:37:43.351Z,33.80
2022-08-03T12:43:05.352Z,33.50
2022-08-03T12:48:27.967Z,33.30
2022-08-03T12:53:49.890Z,33.80
2022-08-03T12:59:11.752Z,34.20
2022-08-03T13:04:38.338Z,34.40
2022-08-03T13:10:03.725Z,34.50
2022-08-03T13:15:28.116Z,34.10
2022-08-03T13:20:55.517Z,33.90
2022-08-03T13:26:17.365Z,33.90
2022-08-03T13:31:39.225Z,33.60
2022-08-03T13:37:12.889Z,33.30
2022-08-03T13:42:34.758Z,33.30
2022-08-03T13:47:56.628Z,33.30
2022-08-03T13:53:18.465Z,33.30
2022-08-03T13:58:40.288Z,33.20
2022-08-03T14:04:02.136Z,33.20
2022-08-03T14:09:23.989Z,33.30
2022-08-03T14:14:45.837Z,33.30
2022-08-03T14:20:36.197Z,33.50
2022-08-03T14:25:52.411Z,33.50
2022-08-03T14:32:10.158Z,33.40
2022-08-03T14:36:56.737Z,33.20
2022-08-03T14:42:18.565Z,32.90
2022-08-03T14:50:12.572Z,32.80
2022-08-03T14:53:22.376Z,32.80
2022-08-03T14:58:44.364Z,32.80
2022-08-03T15:04:06.207Z,33.00
2022-08-03T15:09:28.048Z,33.00
2022-08-03T15:14:49.871Z,33.10
2022-08-03T15:20:27.800Z,33.00
2022-08-03T15:26:32.174Z,33.00
2022-08-03T15:31:35.458Z,33.00
2022-08-03T15:36:58.398Z,33.00
2022-08-03T15:42:20.232Z,33.10
2022-08-03T15:47:46.716Z,33.20
2022-08-03T15:53:08.537Z,33.10
2022-08-03T15:59:03.118Z,33.00
2022-08-03T16:04:12.236Z,33.20
2022-08-03T16:09:42.055Z,33.40
2022-08-03T16:15:04.456Z,33.50
2022-08-03T16:20:31.171Z,33.60
2022-08-03T16:25:56.656Z,33.50
2022-08-03T16:31:18.490Z,33.30
2022-08-03T16:36:40.351Z,33.30
2022-08-03T16:42:02.172Z,33.70
2022-08-03T16:47:24.119Z,33.80
2022-08-03T16:52:47.348Z,33.70
2022-08-03T16:58:12.556Z,33.90
2022-08-03T17:03:42.487Z,34.00
2022-08-03T17:09:17.932Z,33.90
2022-08-03T17:14:40.187Z,33.90
2022-08-03T17:20:05.518Z,33.50
2022-08-03T17:26:01.520Z,33.20
2022-08-03T17:31:23.411Z,32.60
2022-08-03T17:37:27.181Z,31.90
2022-08-03T17:42:35.619Z,31.30
2022-08-03T17:47:58.296Z,30.80
2022-08-03T17:53:24.025Z,30.40
2022-08-03T17:58:46.309Z,30.10
2022-08-03T18:04:14.481Z,29.80
2022-08-03T18:10:03.698Z,29.50
2022-08-03T18:15:21.386Z,29.30
2022-08-03T18:20:45.658Z,29.00
2022-08-03T18:26:11.977Z,28.80
2022-08-03T18:32:03.265Z,28.60
2022-08-03T18:37:16.096Z,28.30
2022-08-03T18:42:39.720Z,28.10
2022-08-03T18:48:14.882Z,27.90
2022-08-03T18:54:02.251Z,27.70
2022-08-03T18:59:30.267Z,27.50
2022-08-03T19:04:52.608Z,27.30
2022-08-03T19:10:15.828Z,27.10
2022-08-03T19:15:50.996Z,26.90
2022-08-03T19:21:15.658Z,26.80
2022-08-03T19:26:37.855Z,26.70
2022-08-03T19:32:01.233Z,26.50
2022-08-03T19:37:23.105Z,26.40
2022-08-03T19:42:45.312Z,26.30
2022-08-03T19:48:10.003Z,26.20
2022-08-03T19:53:35.203Z,26.00
2022-08-03T19:58:57.813Z,25.90
2022-08-03T20:04:20.492Z,25.80
2022-08-03T20:09:44.713Z,25.70
2022-08-03T20:15:06.674Z,25.60
2022-08-03T20:20:28.532Z,25.40
2022-08-03T20:25:58.188Z,25.30
2022-08-03T20:31:25.156Z,25.20
2022-08-03T20:36:54.518Z,25.10
2022-08-03T20:42:21.375Z,25.00
2022-08-03T20:47:50.494Z,24.90
2022-08-03T20:53:12.841Z,24.70
2022-08-03T20:58:34.702Z,24.50
2022-08-03T21:03:58.089Z,24.40
2022-08-03T21:09:19.946Z,24.30
2022-08-03T21:14:41.773Z,24.20
2022-08-03T21:20:03.621Z,24.10
2022-08-03T21:25:25.470Z,24.00
2022-08-03T21:30:47.311Z,23.80
2022-08-03T21:36:09.149Z,23.70
2022-08-03T21:41:31.000Z,23.60
2022-08-03T21:46:52.850Z,23.40
2022-08-03T21:52:14.718Z,23.30
2022-08-03T21:57:37.563Z,23.20
2022-08-03T22:03:00.125Z,23.10
2022-08-03T22:08:37.264Z,23.00
2022-08-03T22:13:59.100Z,22.90
2022-08-03T22:19:20.955Z,22.80
2022-08-03T22:24:42.801Z,22.60
2022-08-03T22:30:04.669Z,22.50
2022-08-03T22:35:26.611Z,22.40
2022-08-03T22:40:48.450Z,22.30
2022-08-03T22:46:15.556Z,22.10
2022-08-03T22:51:38.817Z,21.90
2022-08-03T22:57:02.457Z,21.80
2022-08-03T23:02:24.311Z,21.70
2022-08-03T23:07:46.199Z,21.60
2022-08-03T23:13:08.103Z,21.50
2022-08-03T23:18:32.967Z,21.50
2022-08-03T23:23:57.260Z,21.40
2022-08-03T23:29:20.531Z,21.20
2022-08-03T23:34:42.369Z,21.20
2022-08-03T23:40:04.220Z,21.10
2022-08-03T23:45:26.075Z,21.00
2022-08-03T23:50:47.914Z,21.00
2022-08-03T23:56:09.752Z,20.90
